Aérodrome :
LOGIN :

S'inscrire | Disclaimer

   EN    FR    IT 

 










Légende :    VFR   VFR Marginal   IFR   IFR Intensif   IFR Très Intensif
Visi : 
Plafond : 
>= 8 km
>= 3000ft
5 à 8 km
1000 à 3000 ft
1500m à 5 km
500 à 1000 ft
800 à 1500m
200 à 500 ft
< 800m
< 200 ft
Symboles :   Orages  Brouillard  Fortes neiges  Fortes précipitations  Vent > 20 kt
SIGMETs :   Divers  Orages  Givrage  Turbulence  Onde Orograph.  Cendres Volcan.







- Altitude de l'aérodrome : 90 ft
- Code IATA : NTE
- Voir les cartes d'approche


LFRS - Nantes

DERNIER METAR :
  • 171700Z AUTO 24009KT 200V280 9999 OVC012 21/19 Q1017 TEMPO 2000 -DZRA BKN004 OVC010

METARs EXPIRÉS :
  • 171630Z AUTO 22008KT 190V250 9999 OVC013 21/19 Q1017 TEMPO 2000 -DZRA BKN004 OVC010
  • 171600Z AUTO 24009KT 210V270 9999 -RADZ OVC012 20/19 Q1017 TEMPO 2000 -DZRA BKN004 OVC010
  • 171530Z AUTO 23009KT 200V260 9999 OVC013 21/19 Q1018 TEMPO 2000 -DZRA BKN004 OVC010
  • 171500Z AUTO 23010KT 200V260 9999 -DZ OVC012 21/20 Q1018 TEMPO 2000 -DZRA BKN004 OVC010
  • 171430Z AUTO 23008KT 190V260 9999 FEW005 BKN010 OVC015 21/20 Q1018 TEMPO 2000 -DZRA BKN004 OVC010

TAF TAF LFRS
Valide du 17 à 12h jusqu'au 18 à 18h UTC


171100Z 1712/1818 22010KT 7000 BKN008 OVC015
TEMPO 1712/1807 2000 -DZRA BKN004 OVC010
BECMG 1806/1809 28008KT
BECMG 1809/1811 SCT025 SCT050
ATIS : +33 2 40 05 12 74
Pas de NOTAMs connus pour ce terrain.



MET'MAP, la Météo Aéronautique d'un coup d'oeil ! - Copyright ORBIFLY Décembre 2007 - Disclaimer

ORBIFLY MET'MAP TEAM :

Programmation & Développement : Alexandra Zaïnal
Conception & Développement : Baudouin d'Aumeries
Co-Programmation & Développement : Marc-Olivier Méhu
Soutien technique & logistique : Manuel Goepfert

Contact : metmap@orbifly.com




SOURCES & CREDITS :

   NOAA